createdAt,value
2023-02-05T00:00:18.480Z,11.93
2023-02-05T00:02:44.720Z,11.65
2023-02-05T00:05:10.933Z,11.27
2023-02-05T00:07:37.187Z,12.02
2023-02-05T00:10:03.727Z,12.43
2023-02-05T00:12:29.930Z,11.40
2023-02-05T00:14:56.119Z,11.93
2023-02-05T00:17:22.520Z,12.65
2023-02-05T00:19:48.733Z,10.63
2023-02-05T00:22:14.925Z,12.27
2023-02-05T00:24:41.298Z,12.35
2023-02-05T00:27:07.779Z,11.88
2023-02-05T00:29:34.008Z,11.63
2023-02-05T00:32:00.208Z,11.70
2023-02-05T00:34:26.436Z,11.65
2023-02-05T00:36:52.667Z,11.77
2023-02-05T00:39:19.747Z,12.00
2023-02-05T00:41:45.957Z,11.50
2023-02-05T00:44:12.164Z,12.00
2023-02-05T00:46:38.365Z,11.68
2023-02-05T00:49:04.632Z,11.73
2023-02-05T00:51:30.970Z,12.40
2023-02-05T00:53:57.192Z,12.15
2023-02-05T00:56:23.421Z,12.05
2023-02-05T00:58:51.087Z,12.38
2023-02-05T01:01:17.581Z,12.57
2023-02-05T01:03:44.242Z,12.55
2023-02-05T01:06:10.463Z,11.57
2023-02-05T01:08:36.699Z,12.02
2023-02-05T01:11:06.281Z,12.63
2023-02-05T01:13:32.612Z,13.32
2023-02-05T01:15:59.164Z,11.63
2023-02-05T01:18:25.542Z,12.23
2023-02-05T01:20:51.753Z,13.88
2023-02-05T01:23:17.960Z,12.18
2023-02-05T01:25:44.221Z,12.68
2023-02-05T01:28:10.507Z,12.68
2023-02-05T01:30:36.782Z,13.13
2023-02-05T01:33:03.639Z,11.75
2023-02-05T01:35:29.916Z,12.90
2023-02-05T01:37:56.323Z,14.23
2023-02-05T01:40:22.592Z,12.30
2023-02-05T01:42:48.792Z,11.57
2023-02-05T01:45:29.588Z,14.40
2023-02-05T01:47:57.047Z,13.60
2023-02-05T01:50:42.825Z,12.43
2023-02-05T01:53:11.377Z,13.05
2023-02-05T01:55:40.566Z,13.15
2023-02-05T01:58:06.909Z,12.32
2023-02-05T02:00:33.134Z,13.48
2023-02-05T02:02:59.684Z,13.20
2023-02-05T02:05:25.938Z,13.48
2023-02-05T02:07:52.262Z,14.15
2023-02-05T02:10:19.124Z,14.13
2023-02-05T02:12:47.424Z,13.75
2023-02-05T02:15:18.169Z,14.65
2023-02-05T02:17:46.884Z,13.10
2023-02-05T02:20:17.512Z,13.82
2023-02-05T02:22:46.883Z,13.33
2023-02-05T02:25:28.148Z,13.68
2023-02-05T02:28:02.682Z,13.10
2023-02-05T02:30:32.000Z,14.02
2023-02-05T02:33:04.460Z,13.05
2023-02-05T02:35:42.645Z,14.10
2023-02-05T02:38:12.292Z,12.95
2023-02-05T02:40:55.071Z,13.77
2023-02-05T02:43:38.784Z,14.95
2023-02-05T02:46:07.876Z,14.35
2023-02-05T02:48:35.390Z,14.77
2023-02-05T02:51:01.992Z,15.25
2023-02-05T02:53:30.012Z,15.25
2023-02-05T02:55:57.303Z,15.05
2023-02-05T02:58:25.732Z,14.57
2023-02-05T03:00:53.193Z,15.35
2023-02-05T03:03:20.863Z,15.82
2023-02-05T03:05:48.440Z,15.10
2023-02-05T03:08:35.151Z,15.88
2023-02-05T03:11:12.639Z,16.55
2023-02-05T03:13:39.106Z,16.38
2023-02-05T03:16:05.799Z,16.25
2023-02-05T03:18:32.037Z,16.30
2023-02-05T03:21:00.306Z,16.50
2023-02-05T03:23:27.221Z,16.17
2023-02-05T03:25:53.671Z,15.68
2023-02-05T03:28:19.977Z,16.52
2023-02-05T03:30:52.612Z,16.92
2023-02-05T03:33:27.627Z,17.88
2023-02-05T03:36:04.830Z,16.15
2023-02-05T03:38:50.014Z,16.45
2023-02-05T03:41:56.300Z,18.60
2023-02-05T03:44:42.903Z,18.55
2023-02-05T03:47:15.607Z,17.67
2023-02-05T03:49:52.330Z,18.33
2023-02-05T03:52:21.772Z,16.52
2023-02-05T03:54:51.117Z,18.25
2023-02-05T03:57:28.522Z,17.10
2023-02-05T03:59:55.365Z,16.92
2023-02-05T04:02:21.940Z,17.15
2023-02-05T04:04:48.285Z,18.17
2023-02-05T04:07:14.706Z,18.27
2023-02-05T04:09:40.985Z,17.15
2023-02-05T04:12:07.607Z,16.75
2023-02-05T04:14:33.837Z,17.25
2023-02-05T04:17:00.091Z,17.10
2023-02-05T04:19:26.314Z,16.58
2023-02-05T04:21:52.508Z,16.05
2023-02-05T04:24:18.770Z,15.85
2023-02-05T04:26:44.984Z,16.60
2023-02-05T04:29:11.207Z,15.88
2023-02-05T04:31:37.936Z,16.80
2023-02-05T04:34:04.200Z,16.23
2023-02-05T04:36:30.399Z,16.63
2023-02-05T04:38:56.624Z,16.20
2023-02-05T04:41:22.890Z,16.42
2023-02-05T04:43:49.100Z,16.08
2023-02-05T04:46:15.344Z,16.52
2023-02-05T04:48:41.668Z,16.45
2023-02-05T04:51:11.737Z,16.75
2023-02-05T04:53:38.276Z,16.50
2023-02-05T04:56:08.459Z,16.27
2023-02-05T04:58:34.983Z,16.30
2023-02-05T05:01:01.347Z,16.55
2023-02-05T05:03:27.751Z,17.23
2023-02-05T05:05:53.962Z,17.33
2023-02-05T05:08:20.211Z,17.10
2023-02-05T05:10:46.529Z,21.15
2023-02-05T05:13:12.833Z,22.20
2023-02-05T05:15:40.097Z,21.33
2023-02-05T05:18:06.302Z,21.98
2023-02-05T05:20:32.508Z,22.08
2023-02-05T05:22:59.938Z,22.17
2023-02-05T05:25:26.162Z,20.95
2023-02-05T05:27:52.381Z,21.65
2023-02-05T05:30:19.745Z,22.67
2023-02-05T05:32:45.949Z,23.50
2023-02-05T05:35:12.268Z,21.95
2023-02-05T05:37:38.489Z,22.92
2023-02-05T05:40:23.812Z,21.70
2023-02-05T05:43:08.694Z,23.13
2023-02-05T05:45:35.278Z,22.58
2023-02-05T05:48:01.764Z,23.65
2023-02-05T05:50:27.945Z,24.02
2023-02-05T05:52:54.165Z,24.80
2023-02-05T05:55:20.397Z,21.88
2023-02-05T05:57:46.618Z,23.23
2023-02-05T06:00:13.145Z,22.85
2023-02-05T06:02:40.034Z,22.80
2023-02-05T06:05:06.479Z,24.13
2023-02-05T06:07:32.662Z,24.73
2023-02-05T06:09:58.858Z,23.55
2023-02-05T06:12:25.093Z,22.80
2023-02-05T06:14:51.304Z,22.23
2023-02-05T06:17:17.515Z,23.58
2023-02-05T06:19:43.743Z,22.42
2023-02-05T06:22:09.965Z,22.80
2023-02-05T06:24:36.187Z,23.40
2023-02-05T06:27:02.432Z,23.33
2023-02-05T06:29:28.679Z,25.45
2023-02-05T06:31:54.907Z,25.95
2023-02-05T06:34:21.387Z,25.52
2023-02-05T06:36:47.588Z,26.15
2023-02-05T06:39:13.885Z,26.50
2023-02-05T06:41:40.095Z,25.23
2023-02-05T06:44:06.335Z,26.38
2023-02-05T06:46:32.549Z,26.77
2023-02-05T06:48:58.788Z,26.17
2023-02-05T06:51:25.111Z,26.15
2023-02-05T06:53:53.658Z,25.50
2023-02-05T06:56:20.029Z,25.98
2023-02-05T06:58:46.250Z,25.20
2023-02-05T07:01:12.456Z,28.58
2023-02-05T07:03:38.769Z,28.52
2023-02-05T07:06:05.550Z,27.02
2023-02-05T07:08:31.861Z,26.60
2023-02-05T07:10:58.278Z,25.83
2023-02-05T07:13:24.519Z,24.67
2023-02-05T07:15:50.792Z,27.38
2023-02-05T07:18:17.102Z,25.90
2023-02-05T07:20:43.325Z,24.52
2023-02-05T07:23:09.580Z,25.90
2023-02-05T07:25:38.914Z,25.25
2023-02-05T07:28:05.759Z,24.38
2023-02-05T07:30:32.049Z,25.80
2023-02-05T07:33:00.573Z,23.67
2023-02-05T07:35:27.023Z,26.02
2023-02-05T07:37:53.202Z,25.55
2023-02-05T07:40:19.458Z,25.60
2023-02-05T07:42:45.643Z,26.00
2023-02-05T07:45:11.864Z,25.40
2023-02-05T07:47:38.045Z,26.90
2023-02-05T07:50:06.022Z,24.83
2023-02-05T07:52:33.025Z,26.00
2023-02-05T07:54:59.600Z,25.77
2023-02-05T07:57:27.198Z,25.23
2023-02-05T07:59:53.470Z,24.85
2023-02-05T08:02:19.703Z,27.05
2023-02-05T08:04:45.908Z,25.45
2023-02-05T08:07:12.876Z,24.17
2023-02-05T08:09:39.100Z,26.13
2023-02-05T08:12:05.661Z,24.27
2023-02-05T08:14:32.227Z,22.90
2023-02-05T08:16:58.626Z,23.17
2023-02-05T08:19:25.102Z,23.08
2023-02-05T08:21:51.386Z,23.10
2023-02-05T08:24:17.887Z,22.73
2023-02-05T08:26:44.091Z,21.17
2023-02-05T08:29:10.618Z,22.40
2023-02-05T08:31:37.194Z,21.90
2023-02-05T08:34:03.704Z,22.52
2023-02-05T08:36:29.937Z,23.52
2023-02-05T08:38:56.156Z,25.17
2023-02-05T08:41:22.556Z,25.20
2023-02-05T08:43:50.024Z,25.90
2023-02-05T08:46:19.091Z,24.17
2023-02-05T08:48:45.939Z,24.58
2023-02-05T08:51:13.609Z,23.45
2023-02-05T08:53:40.258Z,23.48
2023-02-05T08:56:06.917Z,20.23
2023-02-05T08:58:33.236Z,18.23
2023-02-05T09:01:06.855Z,16.58
2023-02-05T09:03:33.088Z,14.32
2023-02-05T09:05:59.748Z,13.43
2023-02-05T09:08:27.421Z,12.90
2023-02-05T09:10:53.767Z,11.05
2023-02-05T09:13:20.032Z,9.35
2023-02-05T09:15:48.625Z,7.13
2023-02-05T09:18:14.993Z,6.18
2023-02-05T09:20:42.140Z,4.93
2023-02-05T09:23:12.928Z,4.38
2023-02-05T09:25:39.693Z,3.60
2023-02-05T09:28:09.142Z,3.10
2023-02-05T09:30:39.021Z,2.85
2023-02-05T09:33:05.950Z,2.50
2023-02-05T09:35:32.965Z,1.83
2023-02-05T09:38:00.133Z,2.17
2023-02-05T09:40:48.044Z,1.67
2023-02-05T09:43:20.091Z,1.90
2023-02-05T09:45:52.424Z,1.60
2023-02-05T09:48:37.364Z,1.52
2023-02-05T09:51:04.385Z,1.70
2023-02-05T09:53:34.801Z,1.50
2023-02-05T09:56:02.426Z,1.38
2023-02-05T09:58:31.194Z,1.58
2023-02-05T10:01:00.874Z,1.17
2023-02-05T10:03:34.209Z,1.67
2023-02-05T10:06:09.493Z,1.50
2023-02-05T10:08:38.510Z,1.33
2023-02-05T10:11:09.192Z,1.55
2023-02-05T10:13:36.719Z,1.73
2023-02-05T10:16:05.676Z,1.30
2023-02-05T10:18:38.026Z,1.55
2023-02-05T10:21:16.470Z,1.23
2023-02-05T10:23:57.328Z,1.52
2023-02-05T10:26:27.684Z,1.45
2023-02-05T10:29:00.934Z,1.55
2023-02-05T10:31:43.710Z,1.48
2023-02-05T10:34:28.706Z,2.08
2023-02-05T10:36:54.895Z,1.92
2023-02-05T10:39:23.166Z,1.52
2023-02-05T10:42:09.622Z,2.03
2023-02-05T10:44:41.055Z,2.30
2023-02-05T10:49:43.485Z,1.90
2023-02-05T10:52:11.596Z,2.20
2023-02-05T10:54:38.330Z,2.85
2023-02-05T10:57:04.526Z,2.22
2023-02-05T10:59:32.183Z,1.98
2023-02-05T11:02:01.582Z,1.92
2023-02-05T11:04:38.317Z,2.13
2023-02-05T11:07:10.934Z,1.45
2023-02-05T11:09:37.185Z,1.80
2023-02-05T11:12:03.436Z,1.77
2023-02-05T11:14:40.631Z,2.25
2023-02-05T11:17:20.914Z,1.90
2023-02-05T11:19:54.293Z,3.03
2023-02-05T11:22:28.707Z,2.03
2023-02-05T11:25:06.069Z,1.88
2023-02-05T11:27:32.924Z,2.22
2023-02-05T11:30:17.819Z,2.97
2023-02-05T11:32:44.194Z,2.80
2023-02-05T11:35:22.631Z,2.38
2023-02-05T11:37:53.958Z,2.70
2023-02-05T11:40:33.184Z,1.80
2023-02-05T11:43:20.909Z,2.55
2023-02-05T11:45:48.720Z,2.53
2023-02-05T11:48:35.220Z,2.13
2023-02-05T11:51:02.786Z,2.60
2023-02-05T11:53:29.608Z,2.67
2023-02-05T11:56:00.397Z,2.60
2023-02-05T11:58:37.000Z,2.80
2023-02-05T12:01:24.130Z,2.65
2023-02-05T12:04:00.536Z,3.17
2023-02-05T12:06:31.551Z,1.90
2023-02-05T12:08:57.888Z,3.03
2023-02-05T12:12:03.293Z,2.78
2023-02-05T12:14:49.429Z,2.47
2023-02-05T12:17:28.153Z,3.63
2023-02-05T12:20:03.719Z,2.95
2023-02-05T12:22:53.288Z,2.75
2023-02-05T12:25:34.202Z,2.92
2023-02-05T12:28:08.017Z,2.75
2023-02-05T12:30:48.981Z,2.75
2023-02-05T12:33:21.417Z,2.97
2023-02-05T12:35:53.478Z,3.20
2023-02-05T12:38:31.595Z,3.40
2023-02-05T12:41:06.975Z,3.78
2023-02-05T12:43:37.723Z,4.13
2023-02-05T12:46:18.991Z,3.75
2023-02-05T12:49:05.161Z,3.95
2023-02-05T12:51:46.641Z,4.45
2023-02-05T12:54:15.692Z,4.55
2023-02-05T12:56:49.547Z,3.75
2023-02-05T12:59:18.701Z,4.78
2023-02-05T13:01:50.450Z,4.63
2023-02-05T13:04:36.385Z,4.65
2023-02-05T13:07:11.754Z,4.45
2023-02-05T13:09:48.949Z,4.03
2023-02-05T13:12:20.030Z,4.50
2023-02-05T13:15:00.246Z,4.10
2023-02-05T13:17:27.985Z,3.90
2023-02-05T13:19:57.175Z,4.35
2023-02-05T13:23:08.662Z,3.88
2023-02-05T13:25:56.144Z,3.35
2023-02-05T13:28:40.732Z,3.75
2023-02-05T13:31:25.912Z,3.67
2023-02-05T13:33:53.290Z,3.90
2023-02-05T13:36:36.263Z,4.55
2023-02-05T13:39:26.386Z,4.95
2023-02-05T13:42:06.101Z,2.67
2023-02-05T13:44:51.482Z,4.47
2023-02-05T13:47:36.449Z,4.88
2023-02-05T13:50:22.068Z,3.58
2023-02-05T13:53:06.202Z,3.00
2023-02-05T13:55:55.851Z,2.90
2023-02-05T13:58:45.172Z,4.55
2023-02-05T14:01:18.475Z,2.78
2023-02-05T14:03:53.908Z,3.03
2023-02-05T14:06:23.060Z,3.45
2023-02-05T14:08:50.651Z,3.20
2023-02-05T14:11:19.066Z,3.47
2023-02-05T14:14:05.370Z,3.40
2023-02-05T14:16:32.298Z,3.22
2023-02-05T14:19:01.620Z,2.92
2023-02-05T14:21:30.737Z,3.00
2023-02-05T14:24:03.535Z,2.90
2023-02-05T14:26:49.456Z,2.58
2023-02-05T14:29:34.519Z,2.40
2023-02-05T14:32:00.751Z,2.53
2023-02-05T14:34:32.967Z,3.58
2023-02-05T14:36:59.454Z,2.92
2023-02-05T14:39:30.267Z,2.47
2023-02-05T14:41:59.082Z,3.25
2023-02-05T14:44:30.057Z,2.88
2023-02-05T14:47:19.150Z,2.85
2023-02-05T14:49:47.042Z,3.25
2023-02-05T14:52:19.866Z,2.88
2023-02-05T14:54:48.404Z,3.20
2023-02-05T14:57:14.632Z,2.50
2023-02-05T15:00:01.635Z,2.78
2023-02-05T15:02:46.567Z,2.53
2023-02-05T15:05:16.602Z,2.83
2023-02-05T15:07:43.994Z,2.35
2023-02-05T15:10:15.097Z,2.38
2023-02-05T15:12:54.936Z,2.45
2023-02-05T15:15:28.574Z,2.78
2023-02-05T15:17:56.432Z,2.33
2023-02-05T15:20:25.070Z,2.42
2023-02-05T15:22:53.519Z,2.40
2023-02-05T15:25:29.327Z,2.50
2023-02-05T15:27:58.841Z,2.03
2023-02-05T15:30:28.261Z,2.10
2023-02-05T15:33:00.746Z,2.63
2023-02-05T15:35:28.324Z,2.30
2023-02-05T15:37:56.371Z,2.88
2023-02-05T15:40:22.731Z,2.38
2023-02-05T15:42:54.623Z,2.80
2023-02-05T15:45:33.401Z,2.33
2023-02-05T15:48:00.648Z,2.75
2023-02-05T15:50:27.269Z,2.55
2023-02-05T15:52:53.569Z,2.97
2023-02-05T15:55:21.032Z,4.15
2023-02-05T15:57:47.740Z,2.72
2023-02-05T16:00:20.016Z,2.50
2023-02-05T16:02:53.567Z,2.67
2023-02-05T16:05:21.800Z,2.72
2023-02-05T16:07:54.962Z,2.78
2023-02-05T16:10:23.431Z,3.40
2023-02-05T16:12:58.724Z,2.90
2023-02-05T16:15:28.378Z,2.72
2023-02-05T16:17:55.894Z,2.97
2023-02-05T16:20:38.145Z,3.03
2023-02-05T16:23:10.972Z,3.83
2023-02-05T16:25:41.398Z,2.35
2023-02-05T16:28:18.861Z,4.13
2023-02-05T16:30:45.976Z,4.07
2023-02-05T16:33:18.386Z,3.35
2023-02-05T16:35:46.748Z,3.92
2023-02-05T16:38:18.010Z,3.58
2023-02-05T16:40:48.509Z,2.92
2023-02-05T16:43:51.600Z,3.25
2023-02-05T16:46:21.029Z,3.47
2023-02-05T16:48:47.281Z,3.72
2023-02-05T16:51:32.495Z,7.57
2023-02-05T16:54:03.556Z,4.93
2023-02-05T16:56:32.163Z,4.10
2023-02-05T16:59:00.369Z,3.95
2023-02-05T17:01:27.945Z,3.40
2023-02-05T17:03:54.838Z,3.33
2023-02-05T17:06:21.314Z,3.42
2023-02-05T17:08:56.781Z,3.35
2023-02-05T17:11:39.519Z,3.53
2023-02-05T17:14:24.873Z,3.72
2023-02-05T17:17:01.628Z,3.53
2023-02-05T17:19:29.546Z,3.42
2023-02-05T17:22:14.424Z,3.55
2023-02-05T17:24:44.498Z,3.15
2023-02-05T17:27:15.600Z,4.03
2023-02-05T17:29:42.126Z,3.58
2023-02-05T17:32:13.683Z,3.53
2023-02-05T17:34:39.881Z,3.92
2023-02-05T17:37:06.233Z,3.30
2023-02-05T17:39:32.472Z,4.32
2023-02-05T17:42:04.735Z,3.35
2023-02-05T17:44:31.368Z,3.80
2023-02-05T17:46:57.948Z,4.18
2023-02-05T17:49:24.238Z,3.83
2023-02-05T17:51:50.477Z,3.58
2023-02-05T17:54:20.789Z,3.50
2023-02-05T17:56:48.143Z,3.80
2023-02-05T17:59:16.662Z,3.15
2023-02-05T18:01:42.861Z,3.83
2023-02-05T18:04:09.092Z,3.65
2023-02-05T18:06:36.527Z,3.53
2023-02-05T18:09:02.727Z,3.97
2023-02-05T18:11:28.969Z,4.22
2023-02-05T18:13:55.385Z,4.28
2023-02-05T18:16:21.626Z,3.78
2023-02-05T18:18:48.690Z,3.88
2023-02-05T18:21:14.963Z,3.78
2023-02-05T18:23:41.539Z,4.50
2023-02-05T18:26:08.319Z,4.40
2023-02-05T18:28:35.144Z,4.78
2023-02-05T18:31:02.602Z,4.40
2023-02-05T18:33:28.958Z,4.35
2023-02-05T18:35:59.180Z,4.18
2023-02-05T18:38:25.454Z,4.20
2023-02-05T18:40:51.709Z,3.83
2023-02-05T18:43:18.210Z,3.47
2023-02-05T18:45:44.795Z,4.22
2023-02-05T18:48:11.042Z,3.90
2023-02-05T18:50:37.444Z,4.13
2023-02-05T18:53:03.797Z,3.35
2023-02-05T18:55:34.904Z,4.55
2023-02-05T18:58:01.687Z,4.38
2023-02-05T19:00:27.897Z,4.03
2023-02-05T19:02:55.928Z,4.03
2023-02-05T19:05:22.434Z,3.95
2023-02-05T19:07:48.699Z,4.80
2023-02-05T19:10:16.069Z,4.50
2023-02-05T19:12:42.353Z,4.90
2023-02-05T19:15:09.032Z,5.30
2023-02-05T19:17:35.237Z,5.10
2023-02-05T19:20:01.494Z,5.55
2023-02-05T19:22:27.901Z,4.95
2023-02-05T19:24:54.103Z,5.50
2023-02-05T19:27:20.408Z,5.75
2023-02-05T19:29:46.643Z,4.78
2023-02-05T19:32:12.825Z,5.03
2023-02-05T19:34:40.443Z,5.43
2023-02-05T19:37:06.628Z,4.72
2023-02-05T19:39:32.850Z,4.65
2023-02-05T19:41:59.088Z,4.18
2023-02-05T19:44:27.229Z,4.85
2023-02-05T19:46:53.429Z,4.97
2023-02-05T19:49:20.248Z,4.40
2023-02-05T19:51:47.998Z,4.18
2023-02-05T19:54:14.945Z,4.90
2023-02-05T19:56:44.217Z,4.28
2023-02-05T19:59:10.993Z,4.40
2023-02-05T20:01:38.589Z,4.05
2023-02-05T20:04:07.919Z,4.20
2023-02-05T20:06:34.207Z,3.75
2023-02-05T20:09:01.299Z,3.92
2023-02-05T20:11:29.175Z,4.72
2023-02-05T20:13:55.363Z,4.65
2023-02-05T20:16:22.492Z,4.55
2023-02-05T20:18:52.948Z,4.93
2023-02-05T20:21:19.187Z,3.67
2023-02-05T20:23:46.408Z,4.72
2023-02-05T20:26:14.295Z,3.88
2023-02-05T20:28:59.657Z,3.70
2023-02-05T20:31:38.130Z,4.68
2023-02-05T20:34:05.420Z,4.20
2023-02-05T20:36:32.506Z,4.93
2023-02-05T20:38:59.653Z,3.60
2023-02-05T20:41:26.329Z,4.47
2023-02-05T20:43:52.642Z,3.60
2023-02-05T20:46:19.236Z,4.25
2023-02-05T20:48:45.615Z,4.03
2023-02-05T20:51:12.869Z,4.05
2023-02-05T20:53:39.622Z,4.47
2023-02-05T20:56:07.377Z,4.53
2023-02-05T20:58:34.026Z,4.15
2023-02-05T21:01:07.627Z,4.90
2023-02-05T21:03:34.117Z,4.80
2023-02-05T21:06:00.384Z,4.57
2023-02-05T21:08:26.700Z,5.35
2023-02-05T21:10:52.890Z,4.15
2023-02-05T21:13:19.115Z,4.53
2023-02-05T21:15:52.359Z,4.65
2023-02-05T21:18:18.630Z,4.70
2023-02-05T21:20:44.899Z,3.88
2023-02-05T21:23:11.089Z,4.90
2023-02-05T21:25:37.505Z,4.70
2023-02-05T21:28:03.884Z,5.65
2023-02-05T21:30:30.129Z,5.20
2023-02-05T21:32:56.344Z,4.65
2023-02-05T21:35:22.551Z,4.47
2023-02-05T21:37:48.764Z,5.00
2023-02-05T21:40:15.030Z,5.72
2023-02-05T21:42:41.276Z,6.55
2023-02-05T21:45:08.101Z,5.28
2023-02-05T21:47:34.340Z,6.57
2023-02-05T21:50:00.551Z,5.95
2023-02-05T21:52:26.797Z,5.72
2023-02-05T21:54:53.012Z,4.97
2023-02-05T21:57:19.676Z,5.07
2023-02-05T21:59:45.980Z,4.75
2023-02-05T22:02:12.344Z,6.15
2023-02-05T22:04:38.570Z,5.45
2023-02-05T22:07:04.758Z,4.88
2023-02-05T22:09:31.006Z,7.70
2023-02-05T22:12:03.440Z,6.10
2023-02-05T22:14:30.540Z,5.40
2023-02-05T22:16:57.027Z,6.40
2023-02-05T22:19:24.200Z,6.28
2023-02-05T22:21:50.402Z,5.65
2023-02-05T22:24:17.333Z,4.25
2023-02-05T22:26:44.374Z,6.28
2023-02-05T22:29:12.806Z,7.70
2023-02-05T22:31:39.163Z,8.27
2023-02-05T22:34:05.439Z,6.28
2023-02-05T22:36:32.728Z,5.78
2023-02-05T22:38:59.025Z,5.32
2023-02-05T22:41:32.679Z,5.40
2023-02-05T22:43:59.530Z,4.88
2023-02-05T22:46:27.450Z,5.10
2023-02-05T22:48:54.006Z,4.32
2023-02-05T22:51:24.580Z,4.47
2023-02-05T22:53:52.168Z,5.30
2023-02-05T22:56:18.411Z,4.45
2023-02-05T22:58:46.377Z,5.13
2023-02-05T23:01:14.020Z,4.35
2023-02-05T23:03:40.547Z,4.75
2023-02-05T23:06:07.659Z,4.50
2023-02-05T23:08:33.877Z,4.90
2023-02-05T23:11:04.312Z,5.30
2023-02-05T23:13:30.563Z,4.85
2023-02-05T23:15:56.762Z,4.60
2023-02-05T23:18:23.008Z,4.38
2023-02-05T23:20:49.204Z,4.85
2023-02-05T23:23:15.435Z,4.65
2023-02-05T23:25:43.124Z,3.92
2023-02-05T23:28:09.394Z,4.93
2023-02-05T23:30:35.699Z,5.05
2023-02-05T23:33:01.949Z,4.30
2023-02-05T23:35:28.172Z,4.40
2023-02-05T23:37:54.360Z,4.60
2023-02-05T23:40:20.567Z,5.00
2023-02-05T23:42:46.804Z,4.45
2023-02-05T23:45:13.014Z,4.20
2023-02-05T23:47:39.243Z,5.00
2023-02-05T23:50:05.623Z,4.63
2023-02-05T23:52:31.809Z,4.93
2023-02-05T23:54:58.027Z,5.10
2023-02-05T23:57:24.224Z,5.60
2023-02-05T23:59:50.469Z,4.30
